sensor_id;sensor_type;location;lat;lon;timestamp;P1;durP1;ratioP1;P2;durP2;ratioP2
1062;SDS011;520;50.932;6.962;2023-02-02T00:02:57;9.43;;;3.40;;
1062;SDS011;520;50.932;6.962;2023-02-02T00:09:49;13.63;;;3.60;;
1062;SDS011;520;50.932;6.962;2023-02-02T00:12:42;9.57;;;3.50;;
1062;SDS011;520;50.932;6.962;2023-02-02T00:22:54;11.17;;;4.20;;
1062;SDS011;520;50.932;6.962;2023-02-02T00:29:59;11.77;;;3.30;;
1062;SDS011;520;50.932;6.962;2023-02-02T00:37:34;12.50;;;3.73;;
1062;SDS011;520;50.932;6.962;2023-02-02T00:44:34;9.77;;;2.67;;
1062;SDS011;520;50.932;6.962;2023-02-02T00:48:22;13.57;;;4.77;;
1062;SDS011;520;50.932;6.962;2023-02-02T00:51:42;15.57;;;5.07;;
1062;SDS011;520;50.932;6.962;2023-02-02T00:54:58;8.03;;;3.07;;
1062;SDS011;520;50.932;6.962;2023-02-02T01:06:03;8.43;;;3.63;;
1062;SDS011;520;50.932;6.962;2023-02-02T01:09:33;8.43;;;3.13;;
1062;SDS011;520;50.932;6.962;2023-02-02T01:12:37;11.90;;;4.10;;
1062;SDS011;520;50.932;6.962;2023-02-02T01:16:07;7.43;;;3.53;;
1062;SDS011;520;50.932;6.962;2023-02-02T01:22:49;10.87;;;4.03;;
1062;SDS011;520;50.932;6.962;2023-02-02T01:26:12;10.20;;;3.90;;
1062;SDS011;520;50.932;6.962;2023-02-02T01:29:07;6.57;;;3.23;;
1062;SDS011;520;50.932;6.962;2023-02-02T01:32:37;9.27;;;3.60;;
1062;SDS011;520;50.932;6.962;2023-02-02T01:39:13;9.80;;;4.00;;
1062;SDS011;520;50.932;6.962;2023-02-02T01:42:18;7.80;;;4.00;;
1062;SDS011;520;50.932;6.962;2023-02-02T01:45:41;15.90;;;4.47;;
1062;SDS011;520;50.932;6.962;2023-02-02T01:49:15;8.57;;;3.10;;
1062;SDS011;520;50.932;6.962;2023-02-02T01:52:36;10.80;;;5.20;;
1062;SDS011;520;50.932;6.962;2023-02-02T01:59:50;13.43;;;3.60;;
1062;SDS011;520;50.932;6.962;2023-02-02T02:03:25;7.60;;;3.30;;
1062;SDS011;520;50.932;6.962;2023-02-02T02:13:46;8.93;;;3.10;;
1062;SDS011;520;50.932;6.962;2023-02-02T02:42:24;11.73;;;4.40;;
1062;SDS011;520;50.932;6.962;2023-02-02T02:45:35;10.00;;;3.67;;
1062;SDS011;520;50.932;6.962;2023-02-02T03:13:29;13.27;;;5.13;;
1062;SDS011;520;50.932;6.962;2023-02-02T03:21:04;11.60;;;4.37;;
1062;SDS011;520;50.932;6.962;2023-02-02T03:27:43;11.20;;;4.30;;
1062;SDS011;520;50.932;6.962;2023-02-02T03:30:23;11.83;;;5.67;;
1062;SDS011;520;50.932;6.962;2023-02-02T03:33:35;14.57;;;4.90;;
1062;SDS011;520;50.932;6.962;2023-02-02T03:36:37;10.67;;;3.80;;
1062;SDS011;520;50.932;6.962;2023-02-02T03:39:50;8.40;;;4.03;;
1062;SDS011;520;50.932;6.962;2023-02-02T03:50:50;11.10;;;4.83;;
1062;SDS011;520;50.932;6.962;2023-02-02T03:54:25;11.77;;;4.97;;
1062;SDS011;520;50.932;6.962;2023-02-02T03:57:32;12.93;;;5.57;;
1062;SDS011;520;50.932;6.962;2023-02-02T04:00:47;7.17;;;3.90;;
1062;SDS011;520;50.932;6.962;2023-02-02T04:07:30;9.43;;;4.33;;
1062;SDS011;520;50.932;6.962;2023-02-02T04:10:47;12.87;;;5.33;;
1062;SDS011;520;50.932;6.962;2023-02-02T04:13:47;10.77;;;4.50;;
1062;SDS011;520;50.932;6.962;2023-02-02T04:16:57;9.10;;;3.50;;
1062;SDS011;520;50.932;6.962;2023-02-02T04:23:47;13.37;;;4.70;;
1062;SDS011;520;50.932;6.962;2023-02-02T04:30:17;10.83;;;4.30;;
1062;SDS011;520;50.932;6.962;2023-02-02T04:37:19;10.93;;;4.30;;
1062;SDS011;520;50.932;6.962;2023-02-02T04:40:30;16.73;;;4.30;;
1062;SDS011;520;50.932;6.962;2023-02-02T04:47:31;7.37;;;3.30;;
1062;SDS011;520;50.932;6.962;2023-02-02T04:50:30;10.17;;;3.90;;
1062;SDS011;520;50.932;6.962;2023-02-02T04:57:40;11.20;;;4.30;;
1062;SDS011;520;50.932;6.962;2023-02-02T05:04:48;8.53;;;4.10;;
1062;SDS011;520;50.932;6.962;2023-02-02T05:14:57;7.60;;;3.77;;
1062;SDS011;520;50.932;6.962;2023-02-02T05:24:57;12.07;;;4.93;;
1062;SDS011;520;50.932;6.962;2023-02-02T05:30:51;9.17;;;4.10;;
1062;SDS011;520;50.932;6.962;2023-02-02T05:33:51;11.37;;;5.20;;
1062;SDS011;520;50.932;6.962;2023-02-02T05:36:29;8.53;;;4.67;;
1062;SDS011;520;50.932;6.962;2023-02-02T05:39:29;14.20;;;6.10;;
1062;SDS011;520;50.932;6.962;2023-02-02T05:42:19;12.50;;;4.13;;
1062;SDS011;520;50.932;6.962;2023-02-02T05:45:04;7.10;;;4.53;;
1062;SDS011;520;50.932;6.962;2023-02-02T05:48:01;10.43;;;3.83;;
1062;SDS011;520;50.932;6.962;2023-02-02T05:51:17;10.47;;;5.33;;
1062;SDS011;520;50.932;6.962;2023-02-02T05:54:43;9.97;;;5.00;;
1062;SDS011;520;50.932;6.962;2023-02-02T06:01:11;17.53;;;6.00;;
1062;SDS011;520;50.932;6.962;2023-02-02T06:04:25;12.03;;;4.83;;
1062;SDS011;520;50.932;6.962;2023-02-02T06:11:03;8.50;;;4.90;;
1062;SDS011;520;50.932;6.962;2023-02-02T06:17:38;19.23;;;5.67;;
1062;SDS011;520;50.932;6.962;2023-02-02T06:27:22;10.93;;;5.50;;
1062;SDS011;520;50.932;6.962;2023-02-02T06:30:50;13.47;;;5.67;;
1062;SDS011;520;50.932;6.962;2023-02-02T06:41:28;14.50;;;6.53;;
1062;SDS011;520;50.932;6.962;2023-02-02T06:44:33;12.53;;;5.20;;
1062;SDS011;520;50.932;6.962;2023-02-02T06:47:22;14.30;;;5.83;;
1062;SDS011;520;50.932;6.962;2023-02-02T07:01:22;10.53;;;5.30;;
1062;SDS011;520;50.932;6.962;2023-02-02T07:08:03;8.73;;;5.90;;
1062;SDS011;520;50.932;6.962;2023-02-02T07:30:51;11.37;;;5.40;;
1062;SDS011;520;50.932;6.962;2023-02-02T07:41:59;11.57;;;5.60;;
1062;SDS011;520;50.932;6.962;2023-02-02T07:45:24;9.90;;;5.57;;
1062;SDS011;520;50.932;6.962;2023-02-02T08:08:21;10.53;;;5.67;;
1062;SDS011;520;50.932;6.962;2023-02-02T08:12:01;19.43;;;6.30;;
1062;SDS011;520;50.932;6.962;2023-02-02T08:19:24;12.47;;;5.13;;
1062;SDS011;520;50.932;6.962;2023-02-02T08:30:20;10.93;;;4.90;;
1062;SDS011;520;50.932;6.962;2023-02-02T08:37:51;13.63;;;5.20;;
1062;SDS011;520;50.932;6.962;2023-02-02T08:41:14;8.50;;;5.20;;
1062;SDS011;520;50.932;6.962;2023-02-02T08:52:16;11.40;;;4.97;;
1062;SDS011;520;50.932;6.962;2023-02-02T09:06:42;10.00;;;6.50;;
1062;SDS011;520;50.932;6.962;2023-02-02T09:10:06;9.10;;;6.00;;
1062;SDS011;520;50.932;6.962;2023-02-02T09:24:37;23.77;;;8.80;;
1062;SDS011;520;50.932;6.962;2023-02-02T09:30:34;8.77;;;5.80;;
1062;SDS011;520;50.932;6.962;2023-02-02T09:34:15;8.07;;;5.63;;
1062;SDS011;520;50.932;6.962;2023-02-02T09:37:44;9.73;;;6.03;;
1062;SDS011;520;50.932;6.962;2023-02-02T09:51:16;9.73;;;5.97;;
1062;SDS011;520;50.932;6.962;2023-02-02T09:54:03;7.20;;;4.93;;
1062;SDS011;520;50.932;6.962;2023-02-02T09:56:48;10.07;;;5.83;;
1062;SDS011;520;50.932;6.962;2023-02-02T09:59:36;8.87;;;6.00;;
1062;SDS011;520;50.932;6.962;2023-02-02T10:08:43;11.10;;;6.30;;
1062;SDS011;520;50.932;6.962;2023-02-02T10:11:40;7.70;;;5.60;;
1062;SDS011;520;50.932;6.962;2023-02-02T10:14:30;10.33;;;7.03;;
1062;SDS011;520;50.932;6.962;2023-02-02T10:17:35;8.80;;;6.17;;
1062;SDS011;520;50.932;6.962;2023-02-02T10:20:29;7.53;;;6.43;;
1062;SDS011;520;50.932;6.962;2023-02-02T10:23:40;12.60;;;5.47;;
1062;SDS011;520;50.932;6.962;2023-02-02T10:38:50;8.33;;;5.80;;
1062;SDS011;520;50.932;6.962;2023-02-02T10:42:17;11.10;;;6.00;;
1062;SDS011;520;50.932;6.962;2023-02-02T10:48:18;13.17;;;6.17;;
1062;SDS011;520;50.932;6.962;2023-02-02T10:51:10;10.93;;;6.13;;
1062;SDS011;520;50.932;6.962;2023-02-02T10:53:56;14.93;;;6.53;;
1062;SDS011;520;50.932;6.962;2023-02-02T10:56:30;8.90;;;6.27;;
1062;SDS011;520;50.932;6.962;2023-02-02T10:59:26;10.30;;;5.97;;
1062;SDS011;520;50.932;6.962;2023-02-02T11:02:12;8.57;;;5.57;;
1062;SDS011;520;50.932;6.962;2023-02-02T11:04:49;7.90;;;6.47;;
1062;SDS011;520;50.932;6.962;2023-02-02T11:07:35;8.63;;;5.23;;
1062;SDS011;520;50.932;6.962;2023-02-02T11:10:17;12.73;;;6.83;;
1062;SDS011;520;50.932;6.962;2023-02-02T11:12:46;7.63;;;5.43;;
1062;SDS011;520;50.932;6.962;2023-02-02T11:15:28;9.93;;;6.40;;
1062;SDS011;520;50.932;6.962;2023-02-02T11:18:12;10.30;;;5.50;;
1062;SDS011;520;50.932;6.962;2023-02-02T11:20:56;13.10;;;7.53;;
1062;SDS011;520;50.932;6.962;2023-02-02T11:37:59;9.47;;;5.90;;
1062;SDS011;520;50.932;6.962;2023-02-02T11:41:02;7.23;;;5.73;;
1062;SDS011;520;50.932;6.962;2023-02-02T11:43:47;9.60;;;5.40;;
1062;SDS011;520;50.932;6.962;2023-02-02T11:46:26;14.50;;;6.87;;
1062;SDS011;520;50.932;6.962;2023-02-02T11:49:16;12.57;;;6.60;;
1062;SDS011;520;50.932;6.962;2023-02-02T11:52:13;14.50;;;5.83;;
1062;SDS011;520;50.932;6.962;2023-02-02T11:54:55;5.90;;;5.20;;
1062;SDS011;520;50.932;6.962;2023-02-02T11:57:25;8.20;;;5.97;;
1062;SDS011;520;50.932;6.962;2023-02-02T12:02:47;10.73;;;6.20;;
1062;SDS011;520;50.932;6.962;2023-02-02T12:05:31;7.03;;;5.77;;
1062;SDS011;520;50.932;6.962;2023-02-02T12:08:00;8.40;;;5.60;;
1062;SDS011;520;50.932;6.962;2023-02-02T12:10:30;8.90;;;5.33;;
1062;SDS011;520;50.932;6.962;2023-02-02T12:16:05;11.77;;;7.00;;
1062;SDS011;520;50.932;6.962;2023-02-02T12:22:04;9.20;;;5.97;;
1062;SDS011;520;50.932;6.962;2023-02-02T12:24:55;10.43;;;6.27;;
1062;SDS011;520;50.932;6.962;2023-02-02T12:27:42;19.23;;;6.30;;
1062;SDS011;520;50.932;6.962;2023-02-02T12:30:26;13.20;;;6.80;;
1062;SDS011;520;50.932;6.962;2023-02-02T12:33:22;15.57;;;5.80;;
1062;SDS011;520;50.932;6.962;2023-02-02T12:41:41;13.07;;;6.07;;
1062;SDS011;520;50.932;6.962;2023-02-02T12:44:36;10.30;;;5.93;;
1062;SDS011;520;50.932;6.962;2023-02-02T12:47:23;11.33;;;6.80;;
1062;SDS011;520;50.932;6.962;2023-02-02T12:53:06;6.03;;;5.00;;
1062;SDS011;520;50.932;6.962;2023-02-02T12:56:03;8.77;;;6.40;;
1062;SDS011;520;50.932;6.962;2023-02-02T12:58:54;7.13;;;5.43;;
1062;SDS011;520;50.932;6.962;2023-02-02T13:04:34;10.83;;;6.70;;
1062;SDS011;520;50.932;6.962;2023-02-02T13:10:05;12.23;;;5.60;;
1062;SDS011;520;50.932;6.962;2023-02-02T13:12:49;9.93;;;5.23;;
1062;SDS011;520;50.932;6.962;2023-02-02T13:15:36;11.07;;;4.77;;
1062;SDS011;520;50.932;6.962;2023-02-02T13:18:16;7.90;;;5.27;;
1062;SDS011;520;50.932;6.962;2023-02-02T13:20:50;9.13;;;5.43;;
1062;SDS011;520;50.932;6.962;2023-02-02T13:26:18;5.37;;;4.80;;
1062;SDS011;520;50.932;6.962;2023-02-02T13:28:52;7.07;;;4.73;;
1062;SDS011;520;50.932;6.962;2023-02-02T13:31:29;8.93;;;5.00;;
1062;SDS011;520;50.932;6.962;2023-02-02T13:34:04;6.60;;;4.50;;
1062;SDS011;520;50.932;6.962;2023-02-02T13:36:41;10.53;;;5.50;;
1062;SDS011;520;50.932;6.962;2023-02-02T13:39:21;7.40;;;4.83;;
1062;SDS011;520;50.932;6.962;2023-02-02T13:41:55;8.73;;;4.60;;
1062;SDS011;520;50.932;6.962;2023-02-02T13:44:24;10.23;;;5.67;;
1062;SDS011;520;50.932;6.962;2023-02-02T13:47:02;5.97;;;4.43;;
1062;SDS011;520;50.932;6.962;2023-02-02T13:49:47;4.83;;;4.40;;
1062;SDS011;520;50.932;6.962;2023-02-02T14:01:03;6.03;;;3.80;;
1062;SDS011;520;50.932;6.962;2023-02-02T14:06:10;10.10;;;3.53;;
1062;SDS011;520;50.932;6.962;2023-02-02T14:08:55;4.40;;;3.60;;
1062;SDS011;520;50.932;6.962;2023-02-02T14:11:27;8.27;;;3.50;;
1062;SDS011;520;50.932;6.962;2023-02-02T14:14:05;5.70;;;2.70;;
1062;SDS011;520;50.932;6.962;2023-02-02T14:17:06;8.90;;;4.13;;
1062;SDS011;520;50.932;6.962;2023-02-02T14:19:54;8.30;;;4.20;;
1062;SDS011;520;50.932;6.962;2023-02-02T14:28:37;4.57;;;2.80;;
1062;SDS011;520;50.932;6.962;2023-02-02T14:34:25;7.30;;;3.43;;
1062;SDS011;520;50.932;6.962;2023-02-02T14:40:09;2.70;;;2.50;;
1062;SDS011;520;50.932;6.962;2023-02-02T14:42:49;5.70;;;3.57;;
1062;SDS011;520;50.932;6.962;2023-02-02T14:45:47;8.60;;;3.20;;
1062;SDS011;520;50.932;6.962;2023-02-02T14:48:34;6.30;;;3.10;;
1062;SDS011;520;50.932;6.962;2023-02-02T14:51:21;5.03;;;2.70;;
1062;SDS011;520;50.932;6.962;2023-02-02T14:53:54;6.87;;;2.40;;
1062;SDS011;520;50.932;6.962;2023-02-02T14:59:21;10.30;;;2.97;;
1062;SDS011;520;50.932;6.962;2023-02-02T15:04:33;7.30;;;2.60;;
1062;SDS011;520;50.932;6.962;2023-02-02T15:10:17;8.40;;;2.27;;
1062;SDS011;520;50.932;6.962;2023-02-02T15:13:20;5.53;;;2.77;;
1062;SDS011;520;50.932;6.962;2023-02-02T15:15:50;6.10;;;2.70;;
1062;SDS011;520;50.932;6.962;2023-02-02T15:18:31;6.27;;;2.80;;
1062;SDS011;520;50.932;6.962;2023-02-02T15:21:05;5.07;;;2.23;;
1062;SDS011;520;50.932;6.962;2023-02-02T15:23:35;7.23;;;2.70;;
1062;SDS011;520;50.932;6.962;2023-02-02T15:26:18;4.97;;;3.00;;
1062;SDS011;520;50.932;6.962;2023-02-02T15:29:02;6.93;;;2.40;;
1062;SDS011;520;50.932;6.962;2023-02-02T15:31:40;11.13;;;4.00;;
1062;SDS011;520;50.932;6.962;2023-02-02T15:34:15;4.53;;;2.13;;
1062;SDS011;520;50.932;6.962;2023-02-02T15:36:51;5.47;;;3.93;;
1062;SDS011;520;50.932;6.962;2023-02-02T15:42:51;5.63;;;2.10;;
1062;SDS011;520;50.932;6.962;2023-02-02T15:48:01;8.60;;;2.93;;
1062;SDS011;520;50.932;6.962;2023-02-02T15:50:34;9.00;;;2.73;;
1062;SDS011;520;50.932;6.962;2023-02-02T15:53:01;7.00;;;2.80;;
1062;SDS011;520;50.932;6.962;2023-02-02T15:55:31;7.67;;;3.20;;
1062;SDS011;520;50.932;6.962;2023-02-02T15:58:01;4.00;;;2.83;;
1062;SDS011;520;50.932;6.962;2023-02-02T16:00:32;7.37;;;3.87;;
1062;SDS011;520;50.932;6.962;2023-02-02T16:03:13;4.37;;;2.57;;
1062;SDS011;520;50.932;6.962;2023-02-02T16:05:48;6.50;;;2.50;;
1062;SDS011;520;50.932;6.962;2023-02-02T16:08:26;7.67;;;2.20;;
1062;SDS011;520;50.932;6.962;2023-02-02T16:13:34;4.30;;;2.60;;
1062;SDS011;520;50.932;6.962;2023-02-02T16:16:04;7.53;;;2.20;;
1062;SDS011;520;50.932;6.962;2023-02-02T16:21:52;5.43;;;2.07;;
1062;SDS011;520;50.932;6.962;2023-02-02T16:24:32;2.20;;;2.07;;
1062;SDS011;520;50.932;6.962;2023-02-02T16:27:03;2.57;;;2.33;;
1062;SDS011;520;50.932;6.962;2023-02-02T16:29:33;6.27;;;2.63;;
1062;SDS011;520;50.932;6.962;2023-02-02T16:32:00;6.77;;;2.67;;
1062;SDS011;520;50.932;6.962;2023-02-02T16:37:16;9.23;;;2.43;;
1062;SDS011;520;50.932;6.962;2023-02-02T16:39:48;4.63;;;2.53;;
1062;SDS011;520;50.932;6.962;2023-02-02T16:42:28;4.40;;;2.43;;
1062;SDS011;520;50.932;6.962;2023-02-02T16:44:59;6.80;;;2.50;;
1062;SDS011;520;50.932;6.962;2023-02-02T16:50:01;7.33;;;2.67;;
1062;SDS011;520;50.932;6.962;2023-02-02T16:53:04;5.50;;;2.23;;
1062;SDS011;520;50.932;6.962;2023-02-02T16:55:53;4.77;;;2.83;;
1062;SDS011;520;50.932;6.962;2023-02-02T17:01:47;4.13;;;2.50;;
1062;SDS011;520;50.932;6.962;2023-02-02T17:07:16;5.80;;;2.53;;
1062;SDS011;520;50.932;6.962;2023-02-02T17:12:49;5.30;;;2.43;;
1062;SDS011;520;50.932;6.962;2023-02-02T17:15:33;12.70;;;3.10;;
1062;SDS011;520;50.932;6.962;2023-02-02T17:18:15;5.00;;;2.00;;
1062;SDS011;520;50.932;6.962;2023-02-02T17:21:08;6.70;;;2.20;;
1062;SDS011;520;50.932;6.962;2023-02-02T17:23:56;3.33;;;1.87;;
1062;SDS011;520;50.932;6.962;2023-02-02T17:26:54;8.10;;;2.10;;
1062;SDS011;520;50.932;6.962;2023-02-02T17:29:40;4.33;;;2.33;;
1062;SDS011;520;50.932;6.962;2023-02-02T17:32:20;3.00;;;2.70;;
1062;SDS011;520;50.932;6.962;2023-02-02T17:35:01;5.50;;;2.50;;
1062;SDS011;520;50.932;6.962;2023-02-02T17:38:32;3.33;;;2.30;;
1062;SDS011;520;50.932;6.962;2023-02-02T17:41:02;3.43;;;2.70;;
1062;SDS011;520;50.932;6.962;2023-02-02T17:43:55;5.00;;;2.70;;
1062;SDS011;520;50.932;6.962;2023-02-02T17:46:45;8.47;;;2.63;;
1062;SDS011;520;50.932;6.962;2023-02-02T17:49:21;6.47;;;2.70;;
1062;SDS011;520;50.932;6.962;2023-02-02T17:52:07;4.43;;;2.30;;
1062;SDS011;520;50.932;6.962;2023-02-02T17:55:27;4.70;;;2.53;;
1062;SDS011;520;50.932;6.962;2023-02-02T17:58:18;7.03;;;2.90;;
1062;SDS011;520;50.932;6.962;2023-02-02T18:01:02;4.40;;;3.00;;
1062;SDS011;520;50.932;6.962;2023-02-02T18:03:34;8.10;;;3.27;;
1062;SDS011;520;50.932;6.962;2023-02-02T18:06:02;5.67;;;3.00;;
1062;SDS011;520;50.932;6.962;2023-02-02T18:08:35;4.47;;;2.90;;
1062;SDS011;520;50.932;6.962;2023-02-02T18:11:27;10.93;;;3.40;;
1062;SDS011;520;50.932;6.962;2023-02-02T18:14:15;3.90;;;3.50;;
1062;SDS011;520;50.932;6.962;2023-02-02T18:16:51;5.73;;;3.20;;
1062;SDS011;520;50.932;6.962;2023-02-02T18:19:35;4.73;;;3.37;;
1062;SDS011;520;50.932;6.962;2023-02-02T18:22:26;5.00;;;3.40;;
1062;SDS011;520;50.932;6.962;2023-02-02T18:25:08;6.60;;;3.23;;
1062;SDS011;520;50.932;6.962;2023-02-02T18:28:09;7.20;;;3.70;;
1062;SDS011;520;50.932;6.962;2023-02-02T18:31:06;4.63;;;3.10;;
1062;SDS011;520;50.932;6.962;2023-02-02T18:34:06;5.87;;;3.90;;
1062;SDS011;520;50.932;6.962;2023-02-02T18:36:44;6.10;;;3.47;;
1062;SDS011;520;50.932;6.962;2023-02-02T18:39:40;5.67;;;3.23;;
1062;SDS011;520;50.932;6.962;2023-02-02T18:42:10;8.07;;;3.70;;
1062;SDS011;520;50.932;6.962;2023-02-02T18:45:03;4.43;;;3.87;;
1062;SDS011;520;50.932;6.962;2023-02-02T18:50:27;11.90;;;4.90;;
1062;SDS011;520;50.932;6.962;2023-02-02T18:53:09;7.83;;;3.97;;
1062;SDS011;520;50.932;6.962;2023-02-02T18:56:02;5.90;;;4.37;;
1062;SDS011;520;50.932;6.962;2023-02-02T18:59:12;5.67;;;4.40;;
1062;SDS011;520;50.932;6.962;2023-02-02T19:02:00;4.63;;;3.87;;
1062;SDS011;520;50.932;6.962;2023-02-02T19:04:33;5.47;;;4.17;;
1062;SDS011;520;50.932;6.962;2023-02-02T19:07:14;8.20;;;4.30;;
1062;SDS011;520;50.932;6.962;2023-02-02T19:10:04;8.53;;;4.70;;
1062;SDS011;520;50.932;6.962;2023-02-02T19:12:56;8.53;;;5.10;;
1062;SDS011;520;50.932;6.962;2023-02-02T19:16:18;6.33;;;3.97;;
1062;SDS011;520;50.932;6.962;2023-02-02T19:19:36;7.97;;;4.33;;
1062;SDS011;520;50.932;6.962;2023-02-02T19:22:26;9.13;;;5.77;;
1062;SDS011;520;50.932;6.962;2023-02-02T19:25:11;8.70;;;4.80;;
1062;SDS011;520;50.932;6.962;2023-02-02T19:27:56;7.33;;;5.10;;
1062;SDS011;520;50.932;6.962;2023-02-02T19:30:46;8.90;;;5.40;;
1062;SDS011;520;50.932;6.962;2023-02-02T19:33:53;9.40;;;5.60;;
1062;SDS011;520;50.932;6.962;2023-02-02T19:36:27;8.53;;;4.93;;
1062;SDS011;520;50.932;6.962;2023-02-02T19:39:04;6.80;;;5.30;;
1062;SDS011;520;50.932;6.962;2023-02-02T19:42:00;6.60;;;5.67;;
1062;SDS011;520;50.932;6.962;2023-02-02T19:44:34;5.93;;;4.83;;
1062;SDS011;520;50.932;6.962;2023-02-02T19:50:19;6.03;;;5.50;;
1062;SDS011;520;50.932;6.962;2023-02-02T19:53:20;7.20;;;4.90;;
1062;SDS011;520;50.932;6.962;2023-02-02T19:56:26;7.73;;;4.67;;
1062;SDS011;520;50.932;6.962;2023-02-02T19:59:07;7.23;;;4.37;;
1062;SDS011;520;50.932;6.962;2023-02-02T20:01:47;9.13;;;4.63;;
1062;SDS011;520;50.932;6.962;2023-02-02T20:04:28;7.17;;;4.97;;
1062;SDS011;520;50.932;6.962;2023-02-02T20:07:12;7.70;;;4.77;;
1062;SDS011;520;50.932;6.962;2023-02-02T20:10:28;5.57;;;4.97;;
1062;SDS011;520;50.932;6.962;2023-02-02T20:16:23;7.63;;;4.73;;
1062;SDS011;520;50.932;6.962;2023-02-02T20:19:24;6.77;;;5.57;;
1062;SDS011;520;50.932;6.962;2023-02-02T20:25:10;8.53;;;5.40;;
1062;SDS011;520;50.932;6.962;2023-02-02T20:28:02;6.60;;;5.47;;
1062;SDS011;520;50.932;6.962;2023-02-02T20:31:02;8.20;;;5.20;;
1062;SDS011;520;50.932;6.962;2023-02-02T20:37:19;7.80;;;5.97;;
1062;SDS011;520;50.932;6.962;2023-02-02T20:40:05;10.47;;;5.60;;
1062;SDS011;520;50.932;6.962;2023-02-02T20:42:49;8.43;;;6.40;;
1062;SDS011;520;50.932;6.962;2023-02-02T20:45:28;8.33;;;5.63;;
1062;SDS011;520;50.932;6.962;2023-02-02T20:48:01;9.60;;;6.77;;
1062;SDS011;520;50.932;6.962;2023-02-02T20:50:45;9.07;;;6.50;;
1062;SDS011;520;50.932;6.962;2023-02-02T20:53:47;8.87;;;6.37;;
1062;SDS011;520;50.932;6.962;2023-02-02T20:56:23;13.40;;;6.03;;
1062;SDS011;520;50.932;6.962;2023-02-02T20:58:59;8.87;;;6.47;;
1062;SDS011;520;50.932;6.962;2023-02-02T21:01:43;8.10;;;6.10;;
1062;SDS011;520;50.932;6.962;2023-02-02T21:04:26;8.90;;;6.03;;
1062;SDS011;520;50.932;6.962;2023-02-02T21:07:20;6.77;;;5.77;;
1062;SDS011;520;50.932;6.962;2023-02-02T21:13:09;7.90;;;6.20;;
1062;SDS011;520;50.932;6.962;2023-02-02T21:15:55;8.83;;;6.73;;
1062;SDS011;520;50.932;6.962;2023-02-02T21:21:17;9.60;;;7.57;;
1062;SDS011;520;50.932;6.962;2023-02-02T21:23:48;10.50;;;5.40;;
1062;SDS011;520;50.932;6.962;2023-02-02T21:26:28;8.33;;;5.47;;
1062;SDS011;520;50.932;6.962;2023-02-02T21:28:59;8.57;;;5.23;;
1062;SDS011;520;50.932;6.962;2023-02-02T21:31:29;8.50;;;6.30;;
1062;SDS011;520;50.932;6.962;2023-02-02T21:34:16;7.90;;;5.67;;
1062;SDS011;520;50.932;6.962;2023-02-02T21:36:47;5.40;;;4.97;;
1062;SDS011;520;50.932;6.962;2023-02-02T21:39:37;6.03;;;5.43;;
1062;SDS011;520;50.932;6.962;2023-02-02T21:42:12;9.03;;;6.33;;
1062;SDS011;520;50.932;6.962;2023-02-02T21:50:00;6.30;;;5.10;;
1062;SDS011;520;50.932;6.962;2023-02-02T21:52:47;8.17;;;4.70;;
1062;SDS011;520;50.932;6.962;2023-02-02T21:55:27;7.57;;;5.23;;
1062;SDS011;520;50.932;6.962;2023-02-02T21:58:22;10.40;;;5.70;;
1062;SDS011;520;50.932;6.962;2023-02-02T22:04:11;9.83;;;5.83;;
1062;SDS011;520;50.932;6.962;2023-02-02T22:07:14;8.50;;;5.93;;
1062;SDS011;520;50.932;6.962;2023-02-02T22:09:54;6.63;;;6.03;;
1062;SDS011;520;50.932;6.962;2023-02-02T22:12:32;7.03;;;5.63;;
1062;SDS011;520;50.932;6.962;2023-02-02T22:15:15;10.70;;;6.07;;
1062;SDS011;520;50.932;6.962;2023-02-02T22:18:12;12.57;;;6.37;;
1062;SDS011;520;50.932;6.962;2023-02-02T22:21:00;8.33;;;5.80;;
1062;SDS011;520;50.932;6.962;2023-02-02T22:23:39;10.33;;;5.63;;
1062;SDS011;520;50.932;6.962;2023-02-02T22:29:38;7.90;;;5.20;;
1062;SDS011;520;50.932;6.962;2023-02-02T22:32:21;10.60;;;5.57;;
1062;SDS011;520;50.932;6.962;2023-02-02T22:35:08;5.73;;;5.10;;
1062;SDS011;520;50.932;6.962;2023-02-02T22:41:12;7.90;;;5.40;;
1062;SDS011;520;50.932;6.962;2023-02-02T22:44:10;8.37;;;6.00;;
1062;SDS011;520;50.932;6.962;2023-02-02T22:47:02;6.77;;;5.70;;
1062;SDS011;520;50.932;6.962;2023-02-02T22:49:43;11.13;;;5.30;;
1062;SDS011;520;50.932;6.962;2023-02-02T22:52:35;7.60;;;5.97;;
1062;SDS011;520;50.932;6.962;2023-02-02T22:55:16;9.47;;;5.90;;
1062;SDS011;520;50.932;6.962;2023-02-02T22:58:07;7.10;;;5.50;;
1062;SDS011;520;50.932;6.962;2023-02-02T23:01:02;9.93;;;6.10;;
1062;SDS011;520;50.932;6.962;2023-02-02T23:03:47;9.50;;;6.20;;
1062;SDS011;520;50.932;6.962;2023-02-02T23:06:25;8.27;;;4.60;;
1062;SDS011;520;50.932;6.962;2023-02-02T23:08:58;9.17;;;5.90;;
1062;SDS011;520;50.932;6.962;2023-02-02T23:11:48;6.47;;;5.20;;
1062;SDS011;520;50.932;6.962;2023-02-02T23:14:37;7.00;;;4.57;;
1062;SDS011;520;50.932;6.962;2023-02-02T23:17:25;10.00;;;4.80;;
1062;SDS011;520;50.932;6.962;2023-02-02T23:20:15;5.83;;;5.30;;
1062;SDS011;520;50.932;6.962;2023-02-02T23:23:01;8.23;;;5.13;;
1062;SDS011;520;50.932;6.962;2023-02-02T23:25:55;7.70;;;5.17;;
1062;SDS011;520;50.932;6.962;2023-02-02T23:28:41;6.80;;;4.50;;
1062;SDS011;520;50.932;6.962;2023-02-02T23:31:27;8.20;;;4.70;;
1062;SDS011;520;50.932;6.962;2023-02-02T23:34:16;8.03;;;5.43;;
1062;SDS011;520;50.932;6.962;2023-02-02T23:37:03;6.40;;;5.30;;
1062;SDS011;520;50.932;6.962;2023-02-02T23:39:41;8.37;;;5.00;;
1062;SDS011;520;50.932;6.962;2023-02-02T23:42:33;6.40;;;5.00;;
1062;SDS011;520;50.932;6.962;2023-02-02T23:45:09;6.23;;;4.60;;
1062;SDS011;520;50.932;6.962;2023-02-02T23:48:13;6.93;;;4.60;;
1062;SDS011;520;50.932;6.962;2023-02-02T23:51:20;9.80;;;4.80;;
1062;SDS011;520;50.932;6.962;2023-02-02T23:54:05;9.60;;;4.90;;
1062;SDS011;520;50.932;6.962;2023-02-02T23:56:46;6.70;;;5.00;;
1062;SDS011;520;50.932;6.962;2023-02-02T23:59:20;8.40;;;5.53;;
